createdAt,value
2022-08-23T00:00:41.324Z,94754.16
2022-08-23T00:03:10.019Z,94752.22
2022-08-23T00:05:38.501Z,94744.66
2022-08-23T00:08:07.315Z,94741.91
2022-08-23T00:10:35.901Z,94736.13
2022-08-23T00:13:04.585Z,94739.25
2022-08-23T00:15:34.838Z,94741.69
2022-08-23T00:18:03.331Z,94741.59
2022-08-23T00:20:31.842Z,94741.38
2022-08-23T00:23:00.217Z,94741.22
2022-08-23T00:25:28.577Z,94743.84
2022-08-23T00:27:57.105Z,94730.91
2022-08-23T00:30:26.651Z,94749.59
2022-08-23T00:32:57.021Z,94750.75
2022-08-23T00:35:27.512Z,94743.69
2022-08-23T00:38:05.996Z,94736.97
2022-08-23T00:40:51.173Z,94729.09
2022-08-23T00:43:41.410Z,94738.25
2022-08-23T00:46:37.077Z,94732.31
2022-08-23T00:49:12.459Z,94667.63
2022-08-23T00:51:53.194Z,94712.72
2022-08-23T00:54:23.596Z,94729.59
2022-08-23T00:56:52.976Z,94737.09
2022-08-23T00:59:21.668Z,94751.97
2022-08-23T01:01:50.372Z,94748.47
2022-08-23T01:04:21.164Z,94733.09
2022-08-23T01:06:53.297Z,94738.66
2022-08-23T01:09:22.845Z,94739.47
2022-08-23T01:11:57.678Z,94743.56
2022-08-23T01:14:31.772Z,94739.13
2022-08-23T01:17:07.358Z,94732.97
2022-08-23T01:19:39.341Z,94743.75
2022-08-23T01:22:14.840Z,94753.22
2022-08-23T01:25:05.759Z,94712.56
2022-08-23T01:27:35.758Z,94737.31
2022-08-23T01:30:05.869Z,94765.41
2022-08-23T01:32:38.486Z,94719.59
2022-08-23T01:35:07.601Z,94770.72
2022-08-23T01:37:36.541Z,94779.13
2022-08-23T01:40:08.146Z,94757.13
2022-08-23T01:42:36.779Z,94771.91
2022-08-23T01:45:05.918Z,94766.81
2022-08-23T01:47:34.323Z,94770.75
2022-08-23T01:50:02.689Z,94748.59
2022-08-23T01:52:31.286Z,94763.13
2022-08-23T01:55:01.907Z,94757.31
2022-08-23T01:57:32.789Z,94752.34
2022-08-23T02:00:01.557Z,94750.72
2022-08-23T02:02:30.098Z,94746.66
2022-08-23T02:04:58.487Z,94747.09
2022-08-23T02:07:28.362Z,94754.13
2022-08-23T02:09:56.909Z,94753.34
2022-08-23T02:12:25.506Z,94759.16
2022-08-23T02:14:55.324Z,94761.34
2022-08-23T02:17:24.287Z,94756.97
2022-08-23T02:19:52.888Z,94726.44
2022-08-23T02:22:21.350Z,94764.00
2022-08-23T02:24:51.158Z,94760.38
2022-08-23T02:27:19.541Z,94757.69
2022-08-23T02:29:48.748Z,94768.28
2022-08-23T02:32:21.424Z,94748.75
2022-08-23T02:35:04.960Z,94784.25
2022-08-23T02:37:34.401Z,94770.50
2022-08-23T02:40:03.029Z,94742.59
2022-08-23T02:42:31.501Z,94765.63
2022-08-23T02:44:59.871Z,94723.22
2022-08-23T02:47:29.848Z,94773.28
2022-08-23T02:49:58.474Z,94724.00
2022-08-23T02:52:26.851Z,94783.97
2022-08-23T02:54:58.243Z,94783.63
2022-08-23T02:57:26.900Z,94761.59
2022-08-23T02:59:55.948Z,94762.34
2022-08-23T03:02:24.387Z,94768.00
2022-08-23T03:04:54.428Z,94786.50
2022-08-23T03:07:22.783Z,94780.41
2022-08-23T03:09:51.218Z,94789.88
2022-08-23T03:12:19.820Z,94787.44
2022-08-23T03:14:48.237Z,94793.34
2022-08-23T03:17:16.622Z,94791.47
2022-08-23T03:19:45.058Z,94791.63
2022-08-23T03:22:14.996Z,94784.66
2022-08-23T03:24:43.401Z,94794.75
2022-08-23T03:27:11.817Z,94792.41
2022-08-23T03:29:40.298Z,94810.13
2022-08-23T03:32:08.778Z,94809.22
2022-08-23T03:34:38.620Z,94810.66
2022-08-23T03:37:07.186Z,94815.25
2022-08-23T03:39:37.555Z,94824.19
2022-08-23T03:42:06.839Z,94830.84
2022-08-23T03:44:35.504Z,94823.72
2022-08-23T03:47:03.940Z,94825.75
2022-08-23T03:49:32.355Z,94821.69
2022-08-23T03:52:01.533Z,94833.13
2022-08-23T03:54:30.288Z,94818.16
2022-08-23T03:57:03.065Z,94820.19
2022-08-23T03:59:33.924Z,94750.38
2022-08-23T04:02:02.584Z,94816.00
2022-08-23T04:04:31.087Z,94824.88
2022-08-23T04:06:59.502Z,94820.97
2022-08-23T04:09:28.049Z,94832.25
2022-08-23T04:11:56.547Z,94837.31
2022-08-23T04:14:26.518Z,94808.88
2022-08-23T04:16:55.746Z,94833.38
2022-08-23T04:19:25.484Z,94765.91
2022-08-23T04:21:54.254Z,94857.81
2022-08-23T04:24:22.807Z,94835.41
2022-08-23T04:26:51.353Z,94843.34
2022-08-23T04:29:33.588Z,94849.75
2022-08-23T04:32:07.697Z,94841.47
2022-08-23T04:34:40.107Z,94846.72
2022-08-23T04:37:09.371Z,94846.88
2022-08-23T04:39:58.947Z,94849.72
2022-08-23T04:42:26.867Z,94856.59
2022-08-23T04:44:55.280Z,94855.13
2022-08-23T04:47:25.188Z,94851.81
2022-08-23T04:49:53.569Z,94862.06
2022-08-23T04:52:22.229Z,94864.69
2022-08-23T04:54:50.648Z,94860.28
2022-08-23T04:57:19.050Z,94867.94
2022-08-23T04:59:47.445Z,94877.66
2022-08-23T05:02:15.855Z,94893.25
2022-08-23T05:04:45.696Z,94899.75
2022-08-23T05:07:15.676Z,94840.00
2022-08-23T05:09:44.071Z,94899.47
2022-08-23T05:12:12.966Z,94909.13
2022-08-23T05:14:41.344Z,94912.44
2022-08-23T05:17:16.256Z,94903.59
2022-08-23T05:19:47.135Z,94903.91
2022-08-23T05:22:15.912Z,94896.28
2022-08-23T05:24:44.336Z,94901.22
2022-08-23T05:27:13.756Z,94893.22
2022-08-23T05:29:42.425Z,94910.84
2022-08-23T05:32:11.905Z,94918.13
2022-08-23T05:34:40.403Z,94913.06
2022-08-23T05:37:10.277Z,94912.03
2022-08-23T05:39:38.778Z,94913.97
2022-08-23T05:42:08.269Z,94915.41
2022-08-23T05:44:37.335Z,94927.34
2022-08-23T05:47:11.067Z,94930.97
2022-08-23T05:49:40.949Z,94925.78
2022-08-23T05:52:13.157Z,94915.94
2022-08-23T05:54:42.241Z,94937.25
2022-08-23T05:57:11.788Z,94863.66
2022-08-23T05:59:42.123Z,94941.84
2022-08-23T06:02:10.785Z,94939.69
2022-08-23T06:04:39.469Z,94940.31
2022-08-23T06:07:09.924Z,94943.41
2022-08-23T06:09:39.804Z,94955.59
2022-08-23T06:12:08.444Z,94958.84
2022-08-23T06:14:37.055Z,94971.53
2022-08-23T06:17:05.822Z,94970.78
2022-08-23T06:19:34.341Z,94968.06
2022-08-23T06:22:03.052Z,94977.09
2022-08-23T06:24:31.494Z,94973.72
2022-08-23T06:27:01.302Z,94969.44
2022-08-23T06:29:29.905Z,94962.06
2022-08-23T06:31:58.318Z,94968.75
2022-08-23T06:34:30.014Z,94967.09
2022-08-23T06:37:01.103Z,94965.34
2022-08-23T06:39:34.429Z,94959.97
2022-08-23T06:42:34.375Z,94963.56
2022-08-23T06:44:57.887Z,94960.69
2022-08-23T06:47:26.382Z,94946.72
2022-08-23T06:49:58.301Z,94957.03
2022-08-23T06:52:27.739Z,94944.38
2022-08-23T06:54:57.655Z,94940.81
2022-08-23T06:57:27.819Z,94958.06
2022-08-23T06:59:56.237Z,94965.19
2022-08-23T07:02:26.338Z,94967.56
2022-08-23T07:04:56.058Z,94961.81
2022-08-23T07:07:24.439Z,94964.72
2022-08-23T07:10:06.759Z,94970.00
2022-08-23T07:12:40.901Z,94967.22
2022-08-23T07:15:10.569Z,94965.66
2022-08-23T07:17:38.945Z,94974.56
2022-08-23T07:20:08.177Z,94977.41
2022-08-23T07:22:36.676Z,94970.44
2022-08-23T07:25:05.414Z,94965.91
2022-08-23T07:27:33.893Z,94972.63
2022-08-23T07:30:04.016Z,94954.16
2022-08-23T07:32:32.574Z,94952.00
2022-08-23T07:35:01.258Z,94963.13
2022-08-23T07:37:31.008Z,94964.31
2022-08-23T07:39:59.448Z,94958.81
2022-08-23T07:42:28.061Z,94947.72
2022-08-23T07:44:56.520Z,94965.63
2022-08-23T07:47:28.649Z,94966.78
2022-08-23T07:49:57.131Z,94961.25
2022-08-23T07:52:25.556Z,94965.66
2022-08-23T07:54:53.988Z,94966.25
2022-08-23T07:57:22.377Z,94974.75
2022-08-23T07:59:50.840Z,94968.53
2022-08-23T08:02:19.333Z,94962.53
2022-08-23T08:04:49.118Z,94954.81
2022-08-23T08:07:20.824Z,94946.34
2022-08-23T08:09:49.926Z,94895.13
2022-08-23T08:12:18.544Z,94946.13
2022-08-23T08:14:48.470Z,94942.00
2022-08-23T08:17:18.173Z,94923.94
2022-08-23T08:19:47.335Z,94943.50
2022-08-23T08:22:17.279Z,94929.66
2022-08-23T08:24:45.965Z,94938.41
2022-08-23T08:27:14.388Z,94935.06
2022-08-23T08:29:44.140Z,94928.75
2022-08-23T08:32:14.096Z,94933.84
2022-08-23T08:34:43.257Z,94932.31
2022-08-23T08:37:11.919Z,94905.53
2022-08-23T08:39:45.960Z,94926.31
2022-08-23T08:42:41.818Z,94920.41
2022-08-23T08:45:13.194Z,94918.53
2022-08-23T08:47:47.137Z,94910.34
2022-08-23T08:50:20.837Z,94926.16
2022-08-23T08:52:52.839Z,94914.28
2022-08-23T08:55:28.621Z,94908.81
2022-08-23T08:57:57.586Z,94899.50
2022-08-23T09:00:28.641Z,94901.06
2022-08-23T09:02:59.735Z,94903.75
2022-08-23T09:05:33.981Z,94910.03
2022-08-23T09:08:15.198Z,94917.78
2022-08-23T09:10:58.187Z,94920.50
2022-08-23T09:13:59.686Z,94921.34
2022-08-23T09:16:39.838Z,94926.75
2022-08-23T09:19:08.557Z,94932.13
2022-08-23T09:21:47.976Z,94937.88
2022-08-23T09:24:17.621Z,94937.81
2022-08-23T09:26:47.495Z,94945.66
2022-08-23T09:29:22.173Z,94938.66
2022-08-23T09:31:53.076Z,94939.44
2022-08-23T09:34:38.781Z,94943.84
2022-08-23T09:37:18.260Z,94944.66
2022-08-23T09:39:49.726Z,94877.28
2022-08-23T09:42:31.698Z,94941.16
2022-08-23T09:45:01.262Z,94939.22
2022-08-23T09:47:43.264Z,94937.25
2022-08-23T09:50:25.637Z,94933.69
2022-08-23T09:53:00.271Z,94932.47
2022-08-23T09:55:33.168Z,94939.94
2022-08-23T09:58:05.054Z,94941.94
2022-08-23T10:00:36.837Z,94941.91
2022-08-23T10:03:22.664Z,94951.22
2022-08-23T10:05:52.812Z,94948.16
2022-08-23T10:08:27.437Z,94938.47
2022-08-23T10:10:59.865Z,94934.09
2022-08-23T10:13:30.400Z,94946.63
2022-08-23T10:16:08.386Z,94952.81
2022-08-23T10:18:52.401Z,94950.50
2022-08-23T10:21:26.737Z,94957.09
2022-08-23T10:24:11.680Z,94959.41
2022-08-23T10:26:47.775Z,94955.94
2022-08-23T10:29:41.201Z,94941.41
2022-08-23T10:32:21.888Z,94801.41
2022-08-23T10:35:04.406Z,94946.00
2022-08-23T10:37:57.939Z,94946.50
2022-08-23T10:40:31.254Z,94955.31
2022-08-23T10:43:15.885Z,94948.97
2022-08-23T10:45:47.905Z,94944.94
2022-08-23T10:48:27.524Z,94933.56
2022-08-23T10:50:58.759Z,94936.38
2022-08-23T10:53:36.524Z,94945.63
2022-08-23T10:56:06.395Z,94944.97
2022-08-23T10:58:42.407Z,94901.44
2022-08-23T11:01:16.190Z,94938.63
2022-08-23T11:03:48.413Z,94931.19
2022-08-23T11:06:51.120Z,94931.63
2022-08-23T11:09:48.828Z,94930.84
2022-08-23T11:12:25.797Z,94927.13
2022-08-23T11:15:23.548Z,94919.72
2022-08-23T11:18:00.939Z,94925.00
2022-08-23T11:21:01.071Z,94912.00
2022-08-23T11:23:48.310Z,94913.19
2022-08-23T11:27:06.308Z,94906.22
2022-08-23T11:29:43.453Z,94893.88
2022-08-23T11:32:28.060Z,94892.84
2022-08-23T11:35:10.573Z,94896.16
2022-08-23T11:37:57.286Z,94892.00
2022-08-23T11:41:07.176Z,94890.44
2022-08-23T11:43:38.563Z,94884.31
2022-08-23T11:46:34.659Z,94887.97
2022-08-23T11:49:31.606Z,94881.34
2022-08-23T11:52:12.954Z,94870.97
2022-08-23T11:55:03.010Z,94869.94
2022-08-23T11:57:54.335Z,94860.34
2022-08-23T12:00:29.365Z,94859.00
2022-08-23T12:03:06.170Z,94845.09
2022-08-23T12:06:12.602Z,94835.00
2022-08-23T12:08:56.197Z,94825.78
2022-08-23T12:11:26.424Z,94832.56
2022-08-23T12:13:59.651Z,94818.50
2022-08-23T12:16:49.647Z,94826.41
2022-08-23T12:19:31.531Z,94815.06
2022-08-23T12:22:09.076Z,94825.47
2022-08-23T12:24:44.489Z,94818.38
2022-08-23T12:27:27.670Z,94819.94
2022-08-23T12:30:03.052Z,94804.34
2022-08-23T12:32:42.604Z,94805.66
2022-08-23T12:35:35.042Z,94814.78
2022-08-23T12:38:09.658Z,94818.19
2022-08-23T12:40:42.580Z,94801.53
2022-08-23T12:43:22.661Z,94813.53
2022-08-23T12:45:55.357Z,94818.88
2022-08-23T12:48:26.700Z,94816.47
2022-08-23T12:50:57.097Z,94806.25
2022-08-23T12:53:32.384Z,94799.59
2022-08-23T12:56:03.918Z,94810.75
2022-08-23T12:58:36.457Z,94800.09
2022-08-23T13:01:07.542Z,94792.13
2022-08-23T13:03:39.838Z,94782.16
2022-08-23T13:06:11.145Z,94782.19
2022-08-23T13:08:45.046Z,94778.03
2022-08-23T13:11:15.919Z,94787.09
2022-08-23T13:13:45.681Z,94784.13
2022-08-23T13:16:29.785Z,94791.47
2022-08-23T13:19:16.095Z,94769.13
2022-08-23T13:21:45.079Z,94786.78
2022-08-23T13:24:37.992Z,94785.06
2022-08-23T13:27:20.537Z,94782.97
2022-08-23T13:29:57.971Z,94789.84
2022-08-23T13:32:30.108Z,94780.31
2022-08-23T13:35:34.041Z,94785.13
2022-08-23T13:38:11.420Z,94733.50
2022-08-23T13:40:50.393Z,94788.59
2022-08-23T13:43:23.670Z,94776.63
2022-08-23T13:45:55.997Z,94786.78
2022-08-23T13:48:28.590Z,94790.75
2022-08-23T13:51:21.985Z,94788.28
2022-08-23T13:53:50.399Z,94798.75
2022-08-23T13:56:20.605Z,94796.53
2022-08-23T13:58:56.410Z,94774.97
2022-08-23T14:01:25.557Z,94790.19
2022-08-23T14:03:54.466Z,94755.25
2022-08-23T14:06:23.843Z,94792.81
2022-08-23T14:08:52.313Z,94794.81
2022-08-23T14:11:22.328Z,94783.16
2022-08-23T14:13:51.204Z,94795.41
2022-08-23T14:16:33.414Z,94796.09
2022-08-23T14:19:55.213Z,94800.06
2022-08-23T14:21:52.177Z,94804.66
2022-08-23T14:24:22.390Z,94792.31
2022-08-23T14:26:52.939Z,94789.72
2022-08-23T14:29:22.785Z,94793.69
2022-08-23T14:31:52.280Z,94748.50
2022-08-23T14:34:20.951Z,94781.63
2022-08-23T14:39:38.407Z,94784.66
2022-08-23T14:42:09.183Z,94775.00
2022-08-23T14:44:37.572Z,94772.94
2022-08-23T14:47:07.447Z,94776.59
2022-08-23T14:49:36.193Z,94784.03
2022-08-23T14:52:05.405Z,94785.00
2022-08-23T14:54:34.488Z,94783.53
2022-08-23T14:57:02.973Z,94776.22
2022-08-23T14:59:32.793Z,94781.25
2022-08-23T15:02:03.460Z,94786.78
2022-08-23T15:04:34.957Z,94767.59
2022-08-23T15:07:19.938Z,94782.41
2022-08-23T15:09:49.025Z,94792.00
2022-08-23T15:15:12.156Z,94796.78
2022-08-23T15:17:48.335Z,94800.44
2022-08-23T15:20:16.915Z,94801.81
2022-08-23T15:22:55.426Z,94809.81
2022-08-23T15:25:36.789Z,94754.72
2022-08-23T15:28:07.613Z,94807.81
2022-08-23T15:30:41.135Z,94807.38
2022-08-23T15:33:10.688Z,94817.56
2022-08-23T15:35:43.523Z,94809.81
2022-08-23T15:38:15.507Z,94815.41
2022-08-23T15:40:44.729Z,94795.06
2022-08-23T15:43:13.621Z,94811.41
2022-08-23T15:45:43.831Z,94786.09
2022-08-23T15:48:17.129Z,94806.78
2022-08-23T15:50:47.680Z,94804.53
2022-08-23T15:53:17.172Z,94805.56
2022-08-23T15:55:46.868Z,94804.50
2022-08-23T15:58:17.738Z,94813.22
2022-08-23T16:00:48.909Z,94810.97
2022-08-23T16:03:21.040Z,94813.72
2022-08-23T16:05:52.897Z,94812.88
2022-08-23T16:08:26.349Z,94819.97
2022-08-23T16:10:56.056Z,94814.16
2022-08-23T16:13:25.601Z,94831.38
2022-08-23T16:15:55.693Z,94823.13
2022-08-23T16:18:24.065Z,94821.59
2022-08-23T16:20:54.358Z,94811.69
2022-08-23T16:23:24.212Z,94824.81
2022-08-23T16:25:52.933Z,94820.69
2022-08-23T16:28:21.788Z,94823.03
2022-08-23T16:30:50.786Z,94834.53
2022-08-23T16:33:21.529Z,94808.09
2022-08-23T16:35:49.905Z,94841.19
2022-08-23T16:38:22.255Z,94840.06
2022-08-23T16:40:53.877Z,94837.53
2022-08-23T16:43:25.327Z,94850.84
2022-08-23T16:45:59.600Z,94837.06
2022-08-23T16:48:29.584Z,94859.31
2022-08-23T16:50:58.428Z,94860.13
2022-08-23T16:53:27.162Z,94861.16
2022-08-23T16:55:57.280Z,94877.56
2022-08-23T16:58:29.241Z,94874.22
2022-08-23T17:00:59.545Z,94861.09
2022-08-23T17:03:38.822Z,94882.63
2022-08-23T17:06:08.894Z,94884.28
2022-08-23T17:08:40.252Z,94891.63
2022-08-23T17:11:14.315Z,94880.53
2022-08-23T17:13:46.900Z,94889.81
2022-08-23T17:16:15.549Z,94903.06
2022-08-23T17:18:45.594Z,94905.72
2022-08-23T17:21:14.431Z,94896.09
2022-08-23T17:23:42.984Z,94911.16
2022-08-23T17:26:11.670Z,94850.13
2022-08-23T17:28:40.208Z,94914.41
2022-08-23T17:31:08.634Z,94902.78
2022-08-23T17:33:37.048Z,94914.78
2022-08-23T17:36:11.650Z,94896.47
2022-08-23T17:38:40.179Z,94925.94
2022-08-23T17:41:08.562Z,94918.47
2022-08-23T17:43:36.995Z,94937.59
2022-08-23T17:46:05.547Z,94936.06
2022-08-23T17:48:33.945Z,94948.69
2022-08-23T17:51:02.378Z,94938.66
2022-08-23T17:53:32.278Z,94949.31
2022-08-23T17:56:01.863Z,94934.75
2022-08-23T17:58:34.294Z,94938.16
2022-08-23T18:01:02.786Z,94952.25
2022-08-23T18:03:31.909Z,94954.13
2022-08-23T18:06:00.753Z,94956.41
2022-08-23T18:08:29.139Z,94939.31
2022-08-23T18:10:59.276Z,94977.16
2022-08-23T18:13:27.677Z,94981.91
2022-08-23T18:15:56.065Z,94976.00
2022-08-23T18:18:24.528Z,94969.34
2022-08-23T18:20:53.009Z,94976.47
2022-08-23T18:23:21.773Z,94959.09
2022-08-23T18:25:50.235Z,94962.31
2022-08-23T18:28:20.363Z,94942.41
2022-08-23T18:30:51.014Z,94894.00
2022-08-23T18:33:21.368Z,94946.44
2022-08-23T18:35:53.773Z,94926.88
2022-08-23T18:38:22.285Z,94800.16
2022-08-23T18:40:50.905Z,94894.91
2022-08-23T18:43:25.909Z,94869.31
2022-08-23T18:45:57.254Z,94840.78
2022-08-23T18:48:26.064Z,94901.69
2022-08-23T18:50:54.715Z,94913.50
2022-08-23T18:53:29.504Z,94942.56
2022-08-23T18:55:58.018Z,94926.31
2022-08-23T18:58:28.881Z,94947.72
2022-08-23T19:00:57.491Z,94948.91
2022-08-23T19:03:26.165Z,94956.88
2022-08-23T19:05:54.817Z,94886.97
2022-08-23T19:08:24.998Z,94927.34
2022-08-23T19:10:53.746Z,94915.63
2022-08-23T19:13:22.560Z,94955.84
2022-08-23T19:15:53.033Z,94965.41
2022-08-23T19:18:22.110Z,94937.47
2022-08-23T19:20:50.736Z,94961.31
2022-08-23T19:23:21.735Z,94962.53
2022-08-23T19:25:50.414Z,94965.38
2022-08-23T19:28:20.093Z,94958.41
2022-08-23T19:30:52.041Z,94985.94
2022-08-23T19:33:20.848Z,94920.16
2022-08-23T19:35:49.781Z,94977.19
2022-08-23T19:38:19.884Z,94950.66
2022-08-23T19:40:49.099Z,94973.84
2022-08-23T19:43:18.229Z,94945.53
2022-08-23T19:45:46.914Z,94976.03
2022-08-23T19:48:16.846Z,94981.84
2022-08-23T19:50:45.246Z,94979.09
2022-08-23T19:53:14.245Z,94982.25
2022-08-23T19:55:44.802Z,94991.97
2022-08-23T19:58:15.520Z,94850.28
2022-08-23T20:00:44.202Z,94979.03
2022-08-23T20:03:13.025Z,94987.38
2022-08-23T20:05:44.031Z,94986.81
2022-08-23T20:08:12.527Z,94936.09
2022-08-23T20:10:41.063Z,94999.66
2022-08-23T20:13:09.644Z,95005.16
2022-08-23T20:15:39.535Z,95008.47
2022-08-23T20:18:08.008Z,95007.13
2022-08-23T20:20:36.449Z,95016.69
2022-08-23T20:23:23.524Z,95023.38
2022-08-23T20:25:52.047Z,95025.03
2022-08-23T20:28:26.173Z,95021.63
2022-08-23T20:30:55.908Z,95027.72
2022-08-23T20:33:24.508Z,95018.56
2022-08-23T20:35:52.997Z,95030.81
2022-08-23T20:38:33.122Z,95031.84
2022-08-23T20:41:02.155Z,95022.13
2022-08-23T20:43:32.888Z,94961.78
2022-08-23T20:46:01.558Z,95017.00
2022-08-23T20:48:30.004Z,95022.34
2022-08-23T20:51:00.640Z,94998.81
2022-08-23T20:53:30.694Z,95025.31
2022-08-23T20:55:59.902Z,95016.59
2022-08-23T20:58:28.709Z,95026.38
2022-08-23T21:00:57.914Z,95018.84
2022-08-23T21:03:26.539Z,95012.91
2022-08-23T21:06:04.485Z,95017.09
2022-08-23T21:08:34.873Z,95006.47
2022-08-23T21:11:06.075Z,94995.09
2022-08-23T21:13:35.100Z,94986.38
2022-08-23T21:16:03.713Z,94928.16
2022-08-23T21:18:32.178Z,94976.19
2022-08-23T21:21:00.639Z,94740.75
2022-08-23T21:23:29.145Z,94962.25
2022-08-23T21:25:59.528Z,94976.09
2022-08-23T21:28:29.275Z,94978.75
2022-08-23T21:31:06.155Z,94988.53
2022-08-23T21:33:39.765Z,94856.88
2022-08-23T21:36:09.175Z,94950.75
2022-08-23T21:38:38.235Z,94935.16
2022-08-23T21:41:11.440Z,94991.41
2022-08-23T21:43:40.306Z,94985.53
2022-08-23T21:46:08.847Z,94961.56
2022-08-23T21:48:37.353Z,94985.34
2022-08-23T21:51:05.877Z,94964.59
2022-08-23T21:53:34.264Z,94983.31
2022-08-23T21:56:02.841Z,94960.75
2022-08-23T21:58:32.716Z,94968.22
2022-08-23T22:01:01.139Z,94962.06
2022-08-23T22:03:29.883Z,94966.03
2022-08-23T22:05:58.381Z,94931.53
2022-08-23T22:08:26.839Z,94947.34
2022-08-23T22:10:57.833Z,94878.78
2022-08-23T22:13:28.840Z,94983.22
2022-08-23T22:16:00.662Z,94973.03
2022-08-23T22:18:29.505Z,94919.44
2022-08-23T22:20:58.661Z,94986.81
2022-08-23T22:23:28.065Z,94968.56
2022-08-23T22:25:57.807Z,94982.50
2022-08-23T22:28:26.391Z,94975.06
2022-08-23T22:31:02.691Z,94967.44
2022-08-23T22:33:31.509Z,94859.81
2022-08-23T22:36:04.280Z,94970.13
2022-08-23T22:38:32.911Z,94965.06
2022-08-23T22:41:01.366Z,94953.00
2022-08-23T22:43:29.905Z,94925.63
2022-08-23T22:46:01.407Z,94926.44
2022-08-23T22:48:33.092Z,94941.16
2022-08-23T22:51:07.464Z,94948.34
2022-08-23T22:53:37.161Z,94955.88
2022-08-23T22:56:07.377Z,94947.06
2022-08-23T22:58:35.905Z,94958.28
2022-08-23T23:01:13.122Z,94955.78
2022-08-23T23:03:42.598Z,94962.16
2022-08-23T23:06:11.238Z,94962.16
2022-08-23T23:08:39.849Z,94967.75
2022-08-23T23:11:10.305Z,94975.56
2022-08-23T23:13:41.206Z,94958.47
2022-08-23T23:16:13.632Z,94980.81
2022-08-23T23:18:43.343Z,94984.78
2022-08-23T23:21:11.692Z,94979.34
2022-08-23T23:23:40.082Z,94985.25
2022-08-23T23:26:09.649Z,94984.78
2022-08-23T23:28:38.032Z,94992.19
2022-08-23T23:31:06.533Z,94980.50
2022-08-23T23:33:36.419Z,94980.38
2022-08-23T23:36:05.424Z,94977.66
2022-08-23T23:38:33.816Z,94973.38
2022-08-23T23:41:06.230Z,94969.25
2022-08-23T23:43:34.748Z,94969.66
2022-08-23T23:46:06.492Z,94972.38
2022-08-23T23:48:36.381Z,94970.56
2022-08-23T23:51:08.039Z,94970.69
2022-08-23T23:53:36.681Z,94977.72
2022-08-23T23:56:06.454Z,94900.19
2022-08-23T23:58:37.417Z,94972.16
